createdAt,value
2022-07-28T00:02:49.741Z,-0.006
2022-07-28T00:08:02.676Z,0.007
2022-07-28T00:13:15.199Z,0.007
2022-07-28T00:18:27.828Z,0.006
2022-07-28T00:23:40.386Z,0.022
2022-07-28T00:28:52.789Z,0.012
2022-07-28T00:34:05.504Z,0.01
2022-07-28T00:39:18.125Z,0.015
2022-07-28T00:44:30.679Z,0.008
2022-07-28T00:49:43.269Z,0.018
2022-07-28T00:54:55.690Z,0
2022-07-28T01:00:08.269Z,0.007
2022-07-28T01:05:43.705Z,0.016
2022-07-28T01:10:52.953Z,0.022
2022-07-28T01:16:06.238Z,-0.016
2022-07-28T01:21:18.918Z,-0.001
2022-07-28T01:26:32.180Z,0.037
2022-07-28T01:31:44.907Z,0.02
2022-07-28T01:36:57.618Z,0.012
2022-07-28T01:42:10.278Z,0.024
2022-07-28T01:47:22.707Z,0.011
2022-07-28T01:52:35.315Z,0.002
2022-07-28T01:57:48.604Z,-0.017
2022-07-28T02:03:01.719Z,-0.01
2022-07-28T02:08:14.200Z,0.005
2022-07-28T02:13:26.816Z,0.035
2022-07-28T02:18:39.403Z,0.021
2022-07-28T02:23:52.754Z,0.013
2022-07-28T02:29:04.884Z,0.011
2022-07-28T02:34:17.837Z,0.003
2022-07-28T02:39:37.499Z,0.003
2022-07-28T02:44:49.519Z,-0.007
2022-07-28T02:50:02.058Z,-0.009
2022-07-28T02:55:14.167Z,0.015
2022-07-28T03:00:26.159Z,0.007
2022-07-28T03:05:38.604Z,0.011
2022-07-28T03:10:50.981Z,0.012
2022-07-28T03:16:03.218Z,0.006
2022-07-28T03:21:15.488Z,0.013
2022-07-28T03:26:27.867Z,0.023
2022-07-28T03:31:40.839Z,-0.029
2022-07-28T03:36:53.899Z,-0.014
2022-07-28T03:42:06.138Z,0
2022-07-28T03:47:18.507Z,0.034
2022-07-28T03:52:30.807Z,0.034
2022-07-28T03:57:43.330Z,0.026
2022-07-28T04:02:55.473Z,0.023
2022-07-28T04:08:08.068Z,0.021
2022-07-28T04:13:20.379Z,0.021
2022-07-28T04:18:32.521Z,0.019
2022-07-28T04:23:44.833Z,0.027
2022-07-28T04:28:57.224Z,0.011
2022-07-28T04:34:09.713Z,0.024
2022-07-28T04:39:22.655Z,0.032
2022-07-28T04:44:34.934Z,0.02
2022-07-28T04:49:47.128Z,0.012
2022-07-28T04:54:59.465Z,0.029
2022-07-28T05:00:11.799Z,0.021
2022-07-28T05:05:25.166Z,0.031
2022-07-28T05:10:37.403Z,0.011
2022-07-28T05:15:49.818Z,0.017
2022-07-28T05:21:03.029Z,0.003
2022-07-28T05:26:15.626Z,0.05
2022-07-28T05:31:28.061Z,0.02
2022-07-28T05:36:40.528Z,0.008
2022-07-28T05:41:52.845Z,0.018
2022-07-28T05:47:05.265Z,0.045
2022-07-28T05:52:17.784Z,0.03
2022-07-28T05:57:30.227Z,0.034
2022-07-28T06:02:42.731Z,0.032
2022-07-28T06:07:55.483Z,0.043
2022-07-28T06:13:07.937Z,0.015
2022-07-28T06:18:20.666Z,0.001
2022-07-28T06:23:33.067Z,0.042
2022-07-28T06:28:45.718Z,0.042
2022-07-28T06:33:58.338Z,0.021
2022-07-28T06:39:11.073Z,0.028
2022-07-28T06:44:23.731Z,0.039
2022-07-28T06:50:07.157Z,0.046
2022-07-28T06:55:36.149Z,0.055
2022-07-28T07:00:48.939Z,0.038
2022-07-28T07:06:01.933Z,0.043
2022-07-28T07:11:14.623Z,0.051
2022-07-28T07:16:37.717Z,0.044
2022-07-28T07:21:50.593Z,-0.005
2022-07-28T07:27:03.278Z,0.077
2022-07-28T07:32:15.921Z,0.011
2022-07-28T07:37:28.501Z,0.057
2022-07-28T07:42:41.112Z,0.051
2022-07-28T07:47:53.821Z,0.071
2022-07-28T07:53:06.479Z,0.036
2022-07-28T07:58:19.005Z,0.013
2022-07-28T08:03:31.909Z,0.039
2022-07-28T08:08:48.544Z,0.059
2022-07-28T08:14:00.732Z,0.065
2022-07-28T08:19:13.598Z,0.061
2022-07-28T08:24:27.491Z,0.063
2022-07-28T08:29:54.910Z,0.04
2022-07-28T08:35:32.220Z,0.055
2022-07-28T08:40:44.313Z,0.033
2022-07-28T08:45:58.589Z,0.028
2022-07-28T08:51:10.842Z,-0.031
2022-07-28T08:56:23.572Z,0.032
2022-07-28T09:01:38.179Z,0.004
2022-07-28T09:06:54.533Z,0.038
2022-07-28T09:12:07.386Z,0.021
2022-07-28T09:17:20.147Z,0.007
2022-07-28T09:22:33.054Z,0.015
2022-07-28T09:27:45.818Z,0.04
2022-07-28T09:32:58.800Z,0.02
2022-07-28T09:38:11.533Z,-0.014
2022-07-28T09:43:24.487Z,-0.005
2022-07-28T09:48:37.382Z,-0.023
2022-07-28T09:53:50.813Z,0.005
2022-07-28T09:59:03.772Z,0.004
2022-07-28T10:04:25.524Z,-0.008
2022-07-28T10:09:38.321Z,-0.015
2022-07-28T10:14:51.166Z,0.032
2022-07-28T10:20:04.080Z,-0.002
2022-07-28T10:30:45.510Z,0.046
2022-07-28T10:35:58.845Z,0.008
2022-07-28T10:41:11.658Z,0.076
2022-07-28T10:46:25.757Z,0.057
2022-07-28T10:51:54.085Z,0.011
2022-07-28T10:58:06.923Z,0.019
2022-07-28T11:03:22.713Z,-0.01
2022-07-28T11:08:36.034Z,-0.003
2022-07-28T11:13:50.500Z,-0.035
2022-07-28T11:19:38.129Z,0.062
2022-07-28T11:25:35.586Z,0.144
2022-07-28T11:30:48.943Z,0.386
2022-07-28T11:36:02.932Z,0.296
2022-07-28T11:41:17.149Z,0.307
2022-07-28T11:51:51.572Z,0.046
2022-07-28T12:12:38.821Z,0.14
2022-07-28T12:17:51.670Z,0.165
2022-07-28T12:28:18.723Z,0.202
2022-07-28T12:33:30.832Z,0.087
2022-07-28T12:38:43.407Z,0.221
2022-07-28T12:43:56.308Z,0.088
2022-07-28T12:49:09.773Z,-0.031
2022-07-28T12:54:23.229Z,-0.041
2022-07-28T12:59:35.972Z,0.074
2022-07-28T13:10:00.378Z,0.069
2022-07-28T13:30:45.322Z,0.064
2022-07-28T13:46:20.222Z,-0.025
2022-07-28T13:51:34.712Z,-0.014
2022-07-28T14:12:18.389Z,0.091
2022-07-28T14:17:43.032Z,-0.034
2022-07-28T14:33:16.848Z,0.119
2022-07-28T14:54:03.049Z,0.115
2022-07-28T15:04:27.043Z,-0.042
2022-07-28T15:09:42.780Z,0.077
2022-07-28T15:20:10.851Z,0.01
2022-07-28T15:30:34.679Z,-0.038
2022-07-28T15:35:59.762Z,0.029
2022-07-28T15:46:23.174Z,0.037
2022-07-28T15:56:47.831Z,-0.043
2022-07-28T16:02:00.552Z,-0.023
2022-07-28T16:12:23.818Z,0.015
2022-07-28T16:17:40.163Z,0.038
2022-07-28T16:28:05.269Z,0.02
2022-07-28T16:33:17.888Z,0.018
2022-07-28T16:38:30.620Z,0.027
2022-07-28T16:43:44.808Z,-0.041
2022-07-28T16:48:57.002Z,0.002
2022-07-28T16:54:09.899Z,0.005
2022-07-28T16:59:22.570Z,-0.017
2022-07-28T17:09:56.057Z,-0.02
2022-07-28T17:20:19.137Z,-0.022
2022-07-28T17:38:01.186Z,-0.041
2022-07-28T17:48:23.813Z,0.058
2022-07-28T17:53:38.418Z,-0.018
2022-07-28T18:14:32.740Z,0
2022-07-28T18:30:06.259Z,-0.026
2022-07-28T18:35:18.666Z,-0.012
2022-07-28T18:40:31.256Z,-0.005
2022-07-28T18:45:43.852Z,-0.023
2022-07-28T18:50:56.351Z,-0.023
2022-07-28T18:56:09.348Z,0.006
2022-07-28T19:01:21.889Z,-0.012
2022-07-28T19:06:34.542Z,0.007
2022-07-28T19:11:47.033Z,-0.017
2022-07-28T19:16:59.412Z,-0.019
2022-07-28T19:22:11.872Z,0.006
2022-07-28T19:27:24.812Z,0.009
2022-07-28T19:32:45.661Z,0.002
2022-07-28T19:37:58.171Z,0
2022-07-28T19:43:12.032Z,0.015
2022-07-28T19:48:25.522Z,0.005
2022-07-28T19:53:40.731Z,0.024
2022-07-28T19:58:59.472Z,0.012
2022-07-28T20:04:13.018Z,0.026
2022-07-28T20:09:26.036Z,0.024
2022-07-28T20:14:38.684Z,-0.002
2022-07-28T20:19:51.583Z,0.034
2022-07-28T20:25:03.960Z,0.047
2022-07-28T20:30:22.626Z,0.023
2022-07-28T20:35:35.176Z,0.034
2022-07-28T20:40:47.934Z,0.028
2022-07-28T20:46:02.717Z,-0.001
2022-07-28T20:51:15.892Z,0.01
2022-07-28T20:56:28.541Z,0.007
2022-07-28T21:01:41.210Z,0.002
2022-07-28T21:07:00.958Z,-0.012
2022-07-28T21:12:17.192Z,0.034
2022-07-28T21:17:31.833Z,-0.011
2022-07-28T21:22:44.232Z,-0.01
2022-07-28T21:27:57.013Z,0.012
2022-07-28T21:33:09.878Z,0.017
2022-07-28T21:38:22.421Z,0.021
2022-07-28T21:43:35.023Z,0.019
2022-07-28T21:48:47.387Z,0.012
2022-07-28T21:54:00.218Z,0.036
2022-07-28T21:59:12.541Z,0.01
2022-07-28T22:04:25.679Z,0.007
2022-07-28T22:09:38.190Z,0.017
2022-07-28T22:14:50.612Z,0.014
2022-07-28T22:20:03.046Z,0.007
2022-07-28T22:25:15.507Z,0.005
2022-07-28T22:30:27.708Z,0.003
2022-07-28T22:35:39.917Z,0
2022-07-28T22:40:52.417Z,0.011
2022-07-28T22:46:04.977Z,0.019
2022-07-28T22:51:17.635Z,0.02
2022-07-28T22:56:34.869Z,0.01
2022-07-28T23:01:52.806Z,0.003
2022-07-28T23:07:08.377Z,0.014
2022-07-28T23:12:27.556Z,0.025
2022-07-28T23:17:40.156Z,0.025
2022-07-28T23:22:52.824Z,0.008
2022-07-28T23:28:05.346Z,-0.005
2022-07-28T23:33:54.941Z,0.012
2022-07-28T23:39:05.127Z,0.013
2022-07-28T23:44:17.724Z,0.014
2022-07-28T23:49:30.745Z,-0.007
2022-07-28T23:54:43.205Z,-0.002
2022-07-28T23:59:55.766Z,-0.009
